MMCL/CUL METAR and TAF weather

Enter ICAO airport designator
Station Type Date Time Source
MMCL METAR 2022/08/12 13:51 UTC NOAA

MMCL 121351Z 04006KT 10SM SCT080 OVC230 25/23 A2990 RMK 8/037 ISOL SC


Station Type Date Time Source
MMCL Decoded METAR 2022/08/12 13:51 UTC NOAA

Culiacan, Sin., Mexico (MMCL) 24-49N 107-24W
Aug 12, 2022 - 09:51 AM EDT / 2022.08.12 1351 UTC
Wind: from the NE (040 degrees) at 7 MPH (6 KT):0
Visibility: 10 mile(s):0
Sky conditions: overcast
Temperature: 77 F (25 C)
Dew Point: 73 F (23 C)
Relative Humidity: 88%
Pressure (altimeter): 29.9 in. Hg (1012 hPa)
ob: MMCL 121351Z 04006KT 10SM SCT080 OVC230 25/23 A2990 RMK 8/037 ISOL SC
cycle: 14

Station Type Date Time Source
MMCL TAF 2022/08/12 06:54 UTC NOAA

TAF TAF MMCL 120452Z 1206/1306 25005KT P6SM VC TS SCT020
TEMPO 1206/1208 3SM TSRA BKN015CB
FM120800 03005KT P6SM SCT020 BKN200
FM121900 23010KT P6SM SCT020
FM130300 23010KT P6SM SCT020CB BKN080
TEMPO 1303/1306 3SM TSRA BKN015CB

Example: see airport list